createdAt,value
2018-08-04T15:15:06.210Z,990.59
2018-08-04T15:16:05.956Z,990.62
2018-08-04T15:17:05.976Z,990.61
2018-08-04T15:18:06.189Z,990.59
2018-08-04T15:19:05.900Z,990.58
2018-08-04T15:20:05.929Z,990.61
2018-08-04T15:21:05.851Z,990.61
2018-08-04T15:22:05.813Z,990.58
2018-08-04T15:23:05.815Z,990.60
2018-08-04T15:24:05.810Z,990.61
2018-08-04T15:25:05.817Z,990.60
2018-08-04T15:26:05.735Z,990.59
2018-08-04T15:27:05.757Z,990.58
2018-08-04T15:28:05.701Z,990.54
2018-08-04T15:29:05.671Z,990.54
2018-08-04T15:30:05.729Z,990.55
2018-08-04T15:31:05.705Z,990.56
2018-08-04T15:32:05.600Z,990.52
2018-08-04T15:33:05.661Z,990.55
2018-08-04T15:34:05.612Z,990.53
2018-08-04T15:35:05.543Z,990.52
2018-08-04T15:36:05.537Z,990.49
2018-08-04T15:37:05.603Z,990.50
2018-08-04T15:38:05.458Z,990.52
2018-08-04T15:39:05.448Z,990.55
2018-08-04T15:40:05.897Z,990.52
2018-08-04T15:41:06.011Z,990.54
2018-08-04T15:42:05.665Z,990.53
2018-08-04T15:43:06.480Z,990.54
2018-08-04T15:44:05.338Z,990.57
2018-08-04T15:45:06.055Z,990.57
2018-08-04T15:46:05.301Z,990.61
2018-08-04T15:47:05.303Z,990.60
2018-08-04T15:48:05.688Z,990.60
2018-08-04T15:49:05.305Z,990.61
2018-08-04T15:50:05.177Z,990.58
2018-08-04T15:51:05.618Z,990.61
2018-08-04T15:52:05.614Z,990.62
2018-08-04T15:53:05.141Z,990.61
2018-08-04T15:54:05.148Z,990.62
2018-08-04T15:55:05.172Z,990.62
2018-08-04T15:56:05.100Z,990.64
2018-08-04T15:57:05.076Z,990.64
2018-08-04T15:58:05.018Z,990.65
2018-08-04T15:59:05.130Z,990.67
2018-08-04T16:00:04.963Z,990.62
2018-08-04T16:01:04.965Z,990.62
2018-08-04T16:02:05.027Z,990.59
2018-08-04T16:03:05.011Z,990.64
2018-08-04T16:04:04.929Z,990.62
2018-08-04T16:05:05.083Z,990.61
2018-08-04T16:06:04.874Z,990.62
2018-08-04T16:07:04.881Z,990.63
2018-08-04T16:08:04.786Z,990.61
2018-08-04T16:09:04.795Z,990.60
2018-08-04T16:10:04.855Z,990.59
2018-08-04T16:11:04.911Z,990.59
2018-08-04T16:12:04.847Z,990.59
2018-08-04T16:13:04.737Z,990.60
2018-08-04T16:14:04.643Z,990.62
2018-08-04T16:15:04.675Z,990.62
2018-08-04T16:16:04.677Z,990.62
2018-08-04T16:17:04.833Z,990.63
2018-08-04T16:18:04.660Z,990.62
2018-08-04T16:19:04.580Z,990.62
2018-08-04T16:20:04.524Z,990.62
2018-08-04T16:21:04.516Z,990.62
2018-08-04T16:22:04.606Z,990.60
2018-08-04T16:23:04.445Z,990.60
2018-08-04T16:24:04.439Z,990.62
2018-08-04T16:25:04.440Z,990.60
2018-08-04T16:26:04.416Z,990.58
2018-08-04T16:27:04.427Z,990.62
2018-08-04T16:28:04.382Z,990.56
2018-08-04T16:29:04.364Z,990.56
2018-08-04T16:30:04.290Z,990.55
2018-08-04T16:31:04.311Z,990.52
2018-08-04T16:32:04.386Z,990.54
2018-08-04T16:33:04.235Z,990.46
2018-08-04T16:34:04.238Z,990.49
2018-08-04T16:35:04.198Z,990.47
2018-08-04T16:36:04.206Z,990.48
2018-08-04T16:37:04.231Z,990.48
2018-08-04T16:38:04.184Z,990.46
2018-08-04T16:39:04.286Z,990.48
2018-08-04T16:40:04.104Z,990.49
2018-08-04T16:41:04.062Z,990.50
2018-08-04T16:42:04.206Z,990.46
2018-08-04T16:43:04.008Z,990.44
2018-08-04T16:44:03.991Z,990.39
2018-08-04T16:45:03.962Z,990.34
2018-08-04T16:46:03.954Z,990.33
2018-08-04T16:47:03.948Z,990.33
2018-08-04T16:48:04.017Z,990.31
2018-08-04T16:49:03.915Z,990.31
2018-08-04T16:50:03.878Z,990.29
2018-08-04T16:51:03.831Z,990.31
2018-08-04T16:52:03.793Z,990.29
2018-08-04T16:53:04.073Z,990.28
2018-08-04T16:54:04.011Z,990.29
2018-08-04T16:55:03.891Z,990.27
2018-08-04T16:56:03.783Z,990.31
2018-08-04T16:57:03.731Z,990.31
2018-08-04T16:58:03.678Z,990.28
2018-08-04T16:59:04.049Z,990.27
2018-08-04T17:00:03.647Z,990.29
2018-08-04T17:01:03.598Z,990.28
2018-08-04T17:02:03.587Z,990.31
2018-08-04T17:03:03.772Z,990.27
2018-08-04T17:04:03.574Z,990.26
2018-08-04T17:05:03.515Z,990.26
2018-08-04T17:06:03.610Z,990.29
2018-08-04T17:07:03.486Z,990.29
2018-08-04T17:08:03.428Z,990.24
2018-08-04T17:09:03.516Z,990.23
2018-08-04T17:10:03.485Z,990.19
2018-08-04T17:11:03.349Z,990.19
2018-08-04T17:12:03.346Z,990.19
2018-08-04T17:13:03.449Z,990.19
2018-08-04T17:14:03.308Z,990.20
2018-08-04T17:15:03.339Z,990.15
2018-08-04T17:16:03.489Z,990.17
2018-08-04T17:17:03.233Z,990.12
2018-08-04T17:18:03.331Z,990.14
2018-08-04T17:19:03.201Z,990.07
2018-08-04T17:20:03.205Z,990.07
2018-08-04T17:21:03.305Z,990.06
2018-08-04T17:22:03.148Z,990.06
2018-08-04T17:23:03.120Z,990.06
2018-08-04T17:24:03.068Z,990.03
2018-08-04T17:25:03.040Z,990.01
2018-08-04T17:26:03.190Z,990.01
2018-08-04T17:27:03.032Z,990.00
2018-08-04T17:28:02.969Z,989.97
2018-08-04T17:29:02.988Z,989.90
2018-08-04T17:30:03.070Z,989.97
2018-08-04T17:31:02.919Z,989.92
2018-08-04T17:32:03.004Z,989.91
2018-08-04T17:33:02.890Z,989.93
2018-08-04T17:34:02.881Z,989.96
2018-08-04T17:35:02.807Z,989.97
2018-08-04T17:36:02.833Z,989.96
2018-08-04T17:37:02.882Z,990.02
2018-08-04T17:38:02.840Z,990.00
2018-08-04T17:39:02.828Z,990.00
2018-08-04T17:40:02.706Z,990.02
2018-08-04T17:41:02.698Z,990.00
2018-08-04T17:42:02.712Z,989.97
2018-08-04T17:43:02.633Z,989.96
2018-08-04T17:44:02.645Z,989.96
2018-08-04T17:45:02.678Z,989.91
2018-08-04T17:46:02.584Z,989.90
2018-08-04T17:47:02.803Z,989.85
2018-08-04T17:48:02.708Z,989.85
2018-08-04T17:49:02.515Z,989.88
2018-08-04T17:50:02.468Z,989.87
2018-08-04T17:51:02.487Z,989.85
2018-08-04T17:52:02.457Z,989.86
2018-08-04T17:53:02.522Z,989.80
2018-08-04T17:54:02.388Z,989.81
2018-08-04T17:55:02.336Z,989.80
2018-08-04T17:56:02.374Z,989.78
2018-08-04T17:57:02.424Z,989.76
2018-08-04T17:58:02.357Z,989.76
2018-08-04T17:59:02.288Z,989.72
2018-08-04T18:00:02.288Z,989.71
2018-08-04T18:01:02.232Z,989.71
2018-08-04T18:02:02.239Z,989.67
2018-08-04T18:03:02.394Z,989.66
2018-08-04T18:04:02.205Z,989.65
2018-08-04T18:05:02.138Z,989.67
2018-08-04T18:06:02.132Z,989.63
2018-08-04T18:07:02.105Z,989.66
2018-08-04T18:08:02.168Z,989.68
2018-08-04T18:09:02.161Z,989.68
2018-08-04T18:10:02.042Z,989.67
2018-08-04T18:11:01.989Z,989.70
2018-08-04T18:12:01.970Z,989.71
2018-08-04T18:13:01.939Z,989.77
2018-08-04T18:14:01.950Z,989.75
2018-08-04T18:15:02.081Z,989.81
2018-08-04T18:16:01.952Z,989.85
2018-08-04T18:17:01.871Z,989.80
2018-08-04T18:18:01.858Z,989.77
2018-08-04T18:19:01.884Z,989.76
2018-08-04T18:20:01.919Z,989.74
2018-08-04T18:21:01.836Z,989.72
2018-08-04T18:22:01.853Z,989.75
2018-08-04T18:23:01.722Z,989.74
2018-08-04T18:24:01.743Z,989.72
2018-08-04T18:25:01.778Z,989.74
2018-08-04T18:26:01.677Z,989.69
2018-08-04T18:27:01.705Z,989.73
2018-08-04T18:28:01.628Z,989.66
2018-08-04T18:29:01.589Z,989.64
2018-08-04T18:30:01.593Z,989.67
2018-08-04T18:31:01.669Z,989.63
2018-08-04T18:32:01.526Z,989.67
2018-08-04T18:33:01.618Z,989.64
2018-08-04T18:34:01.599Z,989.64
2018-08-04T18:35:01.431Z,989.64
2018-08-04T18:36:01.403Z,989.63
2018-08-04T18:37:01.706Z,989.62
2018-08-04T18:38:01.510Z,989.61
2018-08-04T18:39:01.387Z,989.58
2018-08-04T18:40:01.367Z,989.57
2018-08-04T18:41:01.437Z,989.55
2018-08-04T18:42:01.270Z,989.55
2018-08-04T18:43:01.337Z,989.51
2018-08-04T18:44:01.357Z,989.51
2018-08-04T18:45:01.295Z,989.47
2018-08-04T18:46:01.379Z,989.45
2018-08-04T18:47:01.250Z,989.43
2018-08-04T18:48:01.133Z,989.41
2018-08-04T18:49:01.224Z,989.37
2018-08-04T18:50:01.131Z,989.37
2018-08-04T18:51:01.095Z,989.35
2018-08-04T18:52:01.057Z,989.34
2018-08-04T18:53:01.077Z,989.32
2018-08-04T18:54:01.097Z,989.29
2018-08-04T18:55:00.980Z,989.27
2018-08-04T18:56:01.134Z,989.26
2018-08-04T18:57:00.940Z,989.22
2018-08-04T18:58:00.921Z,989.20
2018-08-04T18:59:00.961Z,989.15
2018-08-04T19:00:00.829Z,989.11
2018-08-04T19:01:00.914Z,989.12
2018-08-04T19:02:00.816Z,989.11
2018-08-04T19:03:00.802Z,989.10
2018-08-04T19:04:00.852Z,989.09
2018-08-04T19:05:00.742Z,989.11
2018-08-04T19:06:00.730Z,989.12
2018-08-04T19:07:00.709Z,989.09
2018-08-04T19:08:00.663Z,989.08
2018-08-04T19:09:00.716Z,989.07
2018-08-04T19:10:00.620Z,989.06
2018-08-04T19:11:00.567Z,989.02
2018-08-04T19:12:00.557Z,989.02
2018-08-04T19:13:00.547Z,988.97
2018-08-04T19:14:00.644Z,988.98
2018-08-04T19:15:00.470Z,988.95
2018-08-04T19:16:00.480Z,988.94
2018-08-04T19:17:00.438Z,988.96
2018-08-04T19:18:00.400Z,988.98
2018-08-04T19:19:00.395Z,988.96
2018-08-04T19:20:00.455Z,989.00
2018-08-04T19:21:00.372Z,988.98
2018-08-04T19:22:00.348Z,988.95
2018-08-04T19:23:00.310Z,988.95
2018-08-04T19:24:00.280Z,988.94
2018-08-04T19:25:00.267Z,988.91
2018-08-04T19:26:00.301Z,988.86
2018-08-04T19:27:00.210Z,988.88
2018-08-04T19:28:00.328Z,988.83
2018-08-04T19:29:00.178Z,988.80
2018-08-04T19:30:00.139Z,988.77
2018-08-04T19:31:00.118Z,988.78
2018-08-04T19:32:00.193Z,988.77
2018-08-04T19:33:00.055Z,988.76
2018-08-04T19:34:00.065Z,988.76
2018-08-04T19:35:00.036Z,988.80
2018-08-04T19:36:00.000Z,988.80
2018-08-04T19:37:00.102Z,988.83
2018-08-04T19:37:59.968Z,988.78
2018-08-04T19:38:59.949Z,988.83
2018-08-04T19:39:59.931Z,988.79
2018-08-04T19:40:59.873Z,988.80
2018-08-04T19:41:59.974Z,988.77
2018-08-04T19:42:59.815Z,988.73
2018-08-04T19:43:59.808Z,988.74
2018-08-04T19:44:59.786Z,988.77
2018-08-04T19:45:59.765Z,988.74
2018-08-04T19:46:59.827Z,988.72
2018-08-04T19:47:59.751Z,988.68
2018-08-04T19:48:59.702Z,988.69
2018-08-04T19:49:59.707Z,988.65
2018-08-04T19:50:59.691Z,988.66
2018-08-04T19:51:59.727Z,988.62
2018-08-04T19:52:59.603Z,988.62
2018-08-04T19:53:59.606Z,988.62
2018-08-04T19:54:59.576Z,988.59
2018-08-04T19:55:59.572Z,988.55
2018-08-04T19:56:59.552Z,988.52
2018-08-04T19:57:59.622Z,988.53
2018-08-04T19:58:59.497Z,988.55
2018-08-04T19:59:59.461Z,988.56
2018-08-04T20:00:59.452Z,988.59
2018-08-04T20:01:59.430Z,988.54
2018-08-04T20:02:59.396Z,988.58
2018-08-04T20:03:59.430Z,988.56
2018-08-04T20:04:59.326Z,988.54
2018-08-04T20:05:59.301Z,988.53
2018-08-04T20:06:59.314Z,988.53
2018-08-04T20:07:59.295Z,988.51
2018-08-04T20:08:59.247Z,988.48
2018-08-04T20:09:59.328Z,988.47
2018-08-04T20:10:59.209Z,988.47
2018-08-04T20:11:59.161Z,988.49
2018-08-04T20:12:59.166Z,988.44
2018-08-04T20:13:59.151Z,988.37
2018-08-04T20:14:59.199Z,988.43
2018-08-04T20:15:59.096Z,988.40
2018-08-04T20:16:59.056Z,988.39
2018-08-04T20:17:59.033Z,988.40
2018-08-04T20:18:59.024Z,988.36
2018-08-04T20:19:59.111Z,988.36
2018-08-04T20:20:58.987Z,988.33
2018-08-04T20:21:58.969Z,988.33
2018-08-04T20:22:58.959Z,988.27
2018-08-04T20:23:58.905Z,988.26
2018-08-04T20:24:58.975Z,988.22
2018-08-04T20:25:58.870Z,988.13
2018-08-04T20:26:58.832Z,988.15
2018-08-04T20:27:58.812Z,988.12
2018-08-04T20:28:58.820Z,988.09
2018-08-04T20:29:58.866Z,988.06
2018-08-04T20:30:58.780Z,988.02
2018-08-04T20:31:58.755Z,987.98
2018-08-04T20:32:58.719Z,987.93
2018-08-04T20:33:58.674Z,987.92
2018-08-04T20:34:58.760Z,987.85
2018-08-04T20:35:58.672Z,987.82
2018-08-04T20:36:58.626Z,987.79
2018-08-04T20:37:58.585Z,987.82
2018-08-04T20:38:58.601Z,987.82
2018-08-04T20:39:58.654Z,987.79
2018-08-04T20:40:58.523Z,987.76
2018-08-04T20:41:58.495Z,987.82
2018-08-04T20:42:58.476Z,987.82
2018-08-04T20:43:58.486Z,987.79
2018-08-04T20:44:58.438Z,987.82
2018-08-04T20:45:58.509Z,987.81
2018-08-04T20:46:58.399Z,987.82
2018-08-04T20:47:58.387Z,987.84
2018-08-04T20:48:58.378Z,987.88
2018-08-04T20:49:58.317Z,987.90
2018-08-04T20:50:58.308Z,987.95
2018-08-04T20:51:58.408Z,987.98
2018-08-04T20:52:58.327Z,987.96
2018-08-04T20:53:58.232Z,987.96
2018-08-04T20:54:58.208Z,987.97
2018-08-04T20:55:58.226Z,987.96
2018-08-04T20:56:58.263Z,987.96
2018-08-04T20:57:58.132Z,987.93
2018-08-04T20:58:58.124Z,987.94
2018-08-04T20:59:58.102Z,987.94
2018-08-04T21:00:58.095Z,987.97
2018-08-04T21:01:58.198Z,988.01
2018-08-04T21:02:58.064Z,988.02
2018-08-04T21:03:58.019Z,988.07
2018-08-04T21:04:58.017Z,988.06
2018-08-04T21:05:57.981Z,988.06
2018-08-04T21:06:58.038Z,988.00
2018-08-04T21:07:57.923Z,987.93
2018-08-04T21:08:57.915Z,987.90
2018-08-04T21:09:57.900Z,987.84
2018-08-04T21:10:57.901Z,987.84
2018-08-04T21:11:57.922Z,987.82
2018-08-04T21:12:57.859Z,987.81
2018-08-04T21:13:57.819Z,987.83
2018-08-04T21:14:57.775Z,987.84
2018-08-04T21:15:57.781Z,987.88
2018-08-04T21:16:57.875Z,987.87
2018-08-04T21:17:57.714Z,987.86
2018-08-04T21:18:57.762Z,987.84
2018-08-04T21:19:57.668Z,987.90
2018-08-04T21:20:57.675Z,987.88
2018-08-04T21:21:57.660Z,987.90
2018-08-04T21:22:57.612Z,987.92
2018-08-04T21:23:57.595Z,987.89
2018-08-04T21:24:57.558Z,987.91
2018-08-04T21:25:57.553Z,987.95
2018-08-04T21:26:57.543Z,987.96
2018-08-04T21:27:57.597Z,987.93
2018-08-04T21:28:57.466Z,987.93
2018-08-04T21:29:57.474Z,987.89
2018-08-04T21:30:57.427Z,987.85
2018-08-04T21:31:57.428Z,987.84
2018-08-04T21:32:57.396Z,987.78
2018-08-04T21:33:57.384Z,987.69
2018-08-04T21:34:57.375Z,987.68
2018-08-04T21:35:57.377Z,987.71
2018-08-04T21:36:57.271Z,987.74
2018-08-04T21:37:57.290Z,987.74
2018-08-04T21:38:57.369Z,987.82
2018-08-04T21:39:57.235Z,987.87
2018-08-04T21:40:57.226Z,987.92
2018-08-04T21:41:57.192Z,987.99
2018-08-04T21:42:57.177Z,988.02
2018-08-04T21:43:57.210Z,988.02
2018-08-04T21:44:57.127Z,987.97
2018-08-04T21:45:57.079Z,987.93
2018-08-04T21:46:57.068Z,987.92
2018-08-04T21:47:57.034Z,987.87
2018-08-04T21:48:57.061Z,987.85
2018-08-04T21:49:57.019Z,987.83
2018-08-04T21:50:56.971Z,987.78
2018-08-04T21:51:56.925Z,987.80
2018-08-04T21:52:56.912Z,987.82
2018-08-04T21:53:57.003Z,987.80
2018-08-04T21:54:56.881Z,987.82
2018-08-04T21:55:56.905Z,987.87
2018-08-04T21:56:56.823Z,987.91
2018-08-04T21:57:56.810Z,987.97
2018-08-04T21:58:56.904Z,988.01
2018-08-04T21:59:56.737Z,988.04
2018-08-04T22:00:56.738Z,988.05
2018-08-04T22:01:56.875Z,988.08
2018-08-04T22:02:56.683Z,988.05
2018-08-04T22:03:56.787Z,988.05
2018-08-04T22:04:56.634Z,988.03
2018-08-04T22:05:56.625Z,988.03
2018-08-04T22:06:56.578Z,987.94
2018-08-04T22:07:56.604Z,987.97
2018-08-04T22:08:56.573Z,987.95
2018-08-04T22:09:56.642Z,987.95
2018-08-04T22:10:56.496Z,987.93
2018-08-04T22:11:56.498Z,987.98
2018-08-04T22:12:56.515Z,987.93
2018-08-04T22:13:56.448Z,987.97
2018-08-04T22:14:56.422Z,987.95
2018-08-04T22:15:56.497Z,987.91
2018-08-04T22:16:56.385Z,987.90
2018-08-04T22:17:56.375Z,987.90
2018-08-04T22:18:56.319Z,987.89
2018-08-04T22:19:56.286Z,987.89
2018-08-04T22:20:56.259Z,987.84
2018-08-04T22:21:56.361Z,987.80
2018-08-04T22:22:56.244Z,987.81
2018-08-04T22:23:56.222Z,987.76
2018-08-04T22:24:56.213Z,987.75
2018-08-04T22:25:56.124Z,987.76
2018-08-04T22:26:56.156Z,987.78
2018-08-04T22:27:56.114Z,987.81
2018-08-04T22:28:56.059Z,987.80
2018-08-04T22:29:56.086Z,987.82
2018-08-04T22:30:56.132Z,987.82
2018-08-04T22:31:56.038Z,987.81
2018-08-04T22:32:55.996Z,987.80
2018-08-04T22:33:55.960Z,987.77
2018-08-04T22:34:55.909Z,987.74
2018-08-04T22:35:55.905Z,987.73
2018-08-04T22:36:55.942Z,987.68
2018-08-04T22:37:55.861Z,987.79
2018-08-04T22:38:55.822Z,987.71
2018-08-04T22:39:55.876Z,987.74
2018-08-04T22:40:55.772Z,987.76
2018-08-04T22:41:55.833Z,987.73
2018-08-04T22:42:55.750Z,987.72
2018-08-04T22:43:55.751Z,987.77
2018-08-04T22:44:55.678Z,987.74
2018-08-04T22:45:55.682Z,987.78
2018-08-04T22:46:55.634Z,987.84
2018-08-04T22:47:55.693Z,987.87
2018-08-04T22:48:55.585Z,987.89
2018-08-04T22:49:55.592Z,987.89
2018-08-04T22:50:55.541Z,987.93
2018-08-04T22:51:55.563Z,987.98
2018-08-04T22:52:55.488Z,987.99
2018-08-04T22:53:55.603Z,988.00
2018-08-04T22:54:55.465Z,988.05
2018-08-04T22:55:55.474Z,988.05
2018-08-04T22:56:55.426Z,988.08
2018-08-04T22:57:55.362Z,988.11
2018-08-04T22:58:55.370Z,988.11
2018-08-04T22:59:55.404Z,988.19
2018-08-04T23:00:55.331Z,988.16
2018-08-04T23:01:55.373Z,988.17
2018-08-04T23:02:55.284Z,988.18
2018-08-04T23:03:55.251Z,988.19
2018-08-04T23:04:55.313Z,988.23
2018-08-04T23:05:55.203Z,988.16
2018-08-04T23:06:55.151Z,988.19
2018-08-04T23:07:55.114Z,988.18
2018-08-04T23:08:55.112Z,988.20
2018-08-04T23:09:55.255Z,988.20
2018-08-04T23:10:55.082Z,988.22
2018-08-04T23:11:55.062Z,988.26
2018-08-04T23:12:55.000Z,988.27
2018-08-04T23:13:54.976Z,988.30
2018-08-04T23:14:55.076Z,988.32
2018-08-04T23:15:54.959Z,988.33
2018-08-04T23:16:54.915Z,988.40
2018-08-04T23:17:56.769Z,988.40
2018-08-04T23:18:55.066Z,988.44
2018-08-04T23:19:55.137Z,988.46
2018-08-04T23:20:54.823Z,988.51
2018-08-04T23:21:54.846Z,988.50
2018-08-04T23:22:55.071Z,988.52
2018-08-04T23:23:55.290Z,988.51
2018-08-04T23:24:57.305Z,988.51
2018-08-04T23:25:54.705Z,988.52
2018-08-04T23:26:54.668Z,988.55
2018-08-04T23:27:54.760Z,988.55
2018-08-04T23:28:54.623Z,988.62
2018-08-04T23:29:54.612Z,988.61
2018-08-04T23:30:54.604Z,988.66
2018-08-04T23:31:54.545Z,988.67
2018-08-04T23:32:54.529Z,988.67
2018-08-04T23:33:54.509Z,988.67
2018-08-04T23:34:54.491Z,988.69
2018-08-04T23:35:54.421Z,988.68
2018-08-04T23:36:54.677Z,988.69
2018-08-04T23:37:54.943Z,988.70
2018-08-04T23:38:54.868Z,988.69
2018-08-04T23:39:54.336Z,988.70
2018-08-04T23:40:54.551Z,988.69
2018-08-04T23:41:54.318Z,988.72
2018-08-04T23:42:54.359Z,988.74
2018-08-04T23:43:54.396Z,988.75
2018-08-04T23:44:54.329Z,988.78
2018-08-04T23:45:54.816Z,988.79
2018-08-04T23:46:54.401Z,988.81
2018-08-04T23:47:54.891Z,988.81
2018-08-04T23:48:54.149Z,988.84
2018-08-04T23:49:54.117Z,988.86
2018-08-04T23:50:54.122Z,988.85
2018-08-04T23:51:54.078Z,988.83
2018-08-04T23:52:54.043Z,988.84
2018-08-04T23:53:54.685Z,988.87
2018-08-04T23:54:54.035Z,988.86
2018-08-04T23:55:53.951Z,988.86
2018-08-04T23:56:53.926Z,988.87
2018-08-04T23:57:53.986Z,988.85
2018-08-04T23:58:53.874Z,988.88
2018-08-04T23:59:54.046Z,988.86
